Gila Bend Af Aux Airport


Codes: KGBN/
Name: Gila Bend Af Aux Airport
City: Gila Bend
Country: United States
Elevation: 858 ft.

Photos at Gila Bend Af Aux Airport


   Photos courtesy of SpottingLog. You can add your own sightings and photos by signing up for a free trial today.



No photos found.

Weather at Gila Bend Af Aux Airport


Time (UTC)DescriptionTempratureWindCloud coverageVisibilityPressureHumidity
21-Feb-2024 03:00Broken Clouds24°C7 mph, SW75%10000m1017hPa25%
21-Feb-2024 06:00Broken Clouds22°C4 mph, SW83%10000m1017hPa28%
21-Feb-2024 09:00Overcast Clouds19°C4 mph, S92%10000m1016hPa31%
21-Feb-2024 12:00Overcast Clouds15°C4 mph, SW95%10000m1016hPa36%
21-Feb-2024 15:00Clear Sky14°C9 mph, SW1%10000m1017hPa46%
21-Feb-2024 18:00Few Clouds18°C9 mph, W17%10000m1019hPa54%
21-Feb-2024 21:00Scattered Clouds20°C11 mph, SW38%10000m1017hPa44%
22-Feb-2024 00:00Scattered Clouds21°C11 mph, W35%10000m1017hPa38%
22-Feb-2024 03:00Scattered Clouds18°C2 mph, W49%10000m1018hPa48%
22-Feb-2024 06:00Scattered Clouds16°C4 mph, SW49%10000m1019hPa51%
22-Feb-2024 09:00Clear Sky15°C2 mph, SW7%10000m1019hPa54%
22-Feb-2024 12:00Clear Sky14°C2 mph, SW4%10000m1019hPa57%
22-Feb-2024 15:00Scattered Clouds14°C0 mph, NE26%10000m1020hPa57%
22-Feb-2024 18:00Scattered Clouds19°C2 mph, NW33%10000m1020hPa41%
22-Feb-2024 21:00Broken Clouds21°C4 mph, NW61%10000m1019hPa33%
23-Feb-2024 00:00Scattered Clouds21°C4 mph, NW35%10000m1017hPa31%
23-Feb-2024 03:00Scattered Clouds19°C4 mph, W38%10000m1018hPa38%
23-Feb-2024 06:00Broken Clouds17°C2 mph, W63%10000m1018hPa43%
23-Feb-2024 09:00Overcast Clouds16°C2 mph, N100%10000m1017hPa46%
23-Feb-2024 12:00Overcast Clouds15°C2 mph, E100%10000m1017hPa47%
23-Feb-2024 15:00Overcast Clouds16°C2 mph, NE99%10000m1018hPa44%
23-Feb-2024 18:00Overcast Clouds20°C4 mph, NE93%10000m1018hPa30%
23-Feb-2024 21:00Broken Clouds23°C4 mph, NE61%10000m1016hPa25%
24-Feb-2024 00:00Scattered Clouds24°C4 mph, N35%10000m1014hPa23%
24-Feb-2024 03:00Few Clouds20°C2 mph, N11%10000m1015hPa31%
24-Feb-2024 06:00Clear Sky18°C0 mph, SW9%10000m1015hPa35%
24-Feb-2024 09:00Few Clouds17°C2 mph, SW20%10000m1015hPa38%
24-Feb-2024 12:00Broken Clouds16°C2 mph, SE59%10000m1014hPa39%
24-Feb-2024 15:00Overcast Clouds17°C0 mph, NW100%10000m1016hPa38%
24-Feb-2024 18:00Overcast Clouds22°C2 mph, NE100%10000m1016hPa25%
24-Feb-2024 21:00Overcast Clouds24°C2 mph, N98%10000m1014hPa22%
25-Feb-2024 00:00Overcast Clouds24°C2 mph, NW99%10000m1014hPa21%
25-Feb-2024 03:00Overcast Clouds20°C2 mph, SE89%10000m1015hPa31%
25-Feb-2024 06:00Overcast Clouds18°C0 mph, SW93%10000m1015hPa34%
25-Feb-2024 09:00Overcast Clouds18°C2 mph, SE99%10000m1015hPa34%
25-Feb-2024 12:00Overcast Clouds17°C2 mph, E100%10000m1015hPa34%
25-Feb-2024 15:00Overcast Clouds18°C2 mph, E100%10000m1016hPa34%
25-Feb-2024 18:00Overcast Clouds23°C2 mph, E100%10000m1016hPa23%
25-Feb-2024 21:00Overcast Clouds26°C2 mph, SW99%10000m1014hPa18%
26-Feb-2024 00:00Overcast Clouds26°C7 mph, SW100%10000m1013hPa18%